createdAt,value
2017-11-26T00:01:28.752Z,5.79
2017-11-26T00:03:56.207Z,5.86
2017-11-26T00:06:23.662Z,5.95
2017-11-26T00:08:51.131Z,5.99
2017-11-26T00:11:18.594Z,5.94
2017-11-26T00:13:46.078Z,6.10
2017-11-26T00:16:13.532Z,6.03
2017-11-26T00:18:41.007Z,6.04
2017-11-26T00:21:08.455Z,5.97
2017-11-26T00:23:35.910Z,6.03
2017-11-26T00:26:03.383Z,6.06
2017-11-26T00:28:30.831Z,6.00
2017-11-26T00:30:58.318Z,5.94
2017-11-26T00:33:25.775Z,5.95
2017-11-26T00:35:53.254Z,5.93
2017-11-26T00:38:20.706Z,5.84
2017-11-26T00:40:48.168Z,5.88
2017-11-26T00:43:15.653Z,5.88
2017-11-26T00:45:43.136Z,5.72
2017-11-26T00:48:10.623Z,5.75
2017-11-26T00:50:38.076Z,5.84
2017-11-26T00:53:05.550Z,5.72
2017-11-26T00:55:33.043Z,5.74
2017-11-26T00:58:00.510Z,5.74
2017-11-26T01:00:27.969Z,5.77
2017-11-26T01:02:55.450Z,5.69
2017-11-26T01:05:22.926Z,5.72
2017-11-26T01:07:50.392Z,5.67
2017-11-26T01:10:17.858Z,5.62
2017-11-26T01:12:45.330Z,5.63
2017-11-26T01:15:12.819Z,5.68
2017-11-26T01:17:40.281Z,5.65
2017-11-26T01:20:07.769Z,5.72
2017-11-26T01:22:40.834Z,5.66
2017-11-26T01:25:08.319Z,5.76
2017-11-26T01:27:35.780Z,5.71
2017-11-26T01:30:03.226Z,5.75
2017-11-26T01:32:31.425Z,5.74
2017-11-26T01:34:58.883Z,5.74
2017-11-26T01:37:26.334Z,5.72
2017-11-26T01:39:53.847Z,5.73
2017-11-26T01:42:21.297Z,5.66
2017-11-26T01:44:48.784Z,5.63
2017-11-26T01:47:16.236Z,5.65
2017-11-26T01:49:43.695Z,5.56
2017-11-26T01:52:11.170Z,5.57
2017-11-26T01:54:38.627Z,5.56
2017-11-26T01:57:06.126Z,5.57
2017-11-26T01:59:33.591Z,5.53
2017-11-26T02:02:01.078Z,5.55
2017-11-26T02:04:28.576Z,5.54
2017-11-26T02:06:56.060Z,5.54
2017-11-26T02:09:23.521Z,5.54
2017-11-26T02:11:51.012Z,5.46
2017-11-26T02:14:18.477Z,5.55
2017-11-26T02:16:45.963Z,5.47
2017-11-26T02:19:13.421Z,5.55
2017-11-26T02:21:41.179Z,5.50
2017-11-26T02:24:08.645Z,5.54
2017-11-26T02:26:36.102Z,5.56
2017-11-26T02:29:03.587Z,5.54
2017-11-26T02:31:42.700Z,5.45
2017-11-26T02:37:10.567Z,5.53
2017-11-26T02:39:38.056Z,5.51
2017-11-26T02:42:05.516Z,5.44
2017-11-26T02:44:32.975Z,5.39
2017-11-26T02:47:00.462Z,5.49
2017-11-26T02:49:27.924Z,5.44
2017-11-26T02:51:55.438Z,5.42
2017-11-26T02:54:22.906Z,5.41
2017-11-26T02:56:50.387Z,5.35
2017-11-26T02:59:17.877Z,5.37
2017-11-26T03:01:45.351Z,5.33
2017-11-26T03:04:12.839Z,5.25
2017-11-26T03:06:40.292Z,5.18
2017-11-26T03:09:07.785Z,5.16
2017-11-26T03:11:35.237Z,5.14
2017-11-26T03:14:02.694Z,5.12
2017-11-26T03:16:30.159Z,5.06
2017-11-26T03:18:57.616Z,5.04
2017-11-26T03:21:25.091Z,4.98
2017-11-26T03:23:52.563Z,4.95
2017-11-26T03:26:20.052Z,4.93
2017-11-26T03:28:47.530Z,4.88
2017-11-26T03:31:15.196Z,4.91
2017-11-26T03:33:42.652Z,4.90
2017-11-26T03:36:10.099Z,4.90
2017-11-26T03:38:37.598Z,4.90
2017-11-26T03:41:05.062Z,4.83
2017-11-26T03:43:32.537Z,4.75
2017-11-26T03:46:00.016Z,4.78
2017-11-26T03:48:27.494Z,4.72
2017-11-26T03:50:54.953Z,4.81
2017-11-26T03:53:22.424Z,4.79
2017-11-26T03:55:49.872Z,4.76
2017-11-26T03:58:17.367Z,4.72
2017-11-26T04:00:44.819Z,4.65
2017-11-26T04:03:12.378Z,4.65
2017-11-26T04:05:39.962Z,4.67
2017-11-26T04:08:07.412Z,4.65
2017-11-26T04:10:34.859Z,4.62
2017-11-26T04:13:02.540Z,4.61
2017-11-26T04:15:29.999Z,4.59
2017-11-26T04:17:57.459Z,4.52
2017-11-26T04:20:24.935Z,4.54
2017-11-26T04:22:52.395Z,4.56
2017-11-26T04:25:19.873Z,4.38
2017-11-26T04:27:47.331Z,4.47
2017-11-26T04:30:14.812Z,4.37
2017-11-26T04:32:42.271Z,4.44
2017-11-26T04:35:09.722Z,4.44
2017-11-26T04:37:37.196Z,4.50
2017-11-26T04:40:04.661Z,4.38
2017-11-26T04:42:32.156Z,4.32
2017-11-26T04:44:59.612Z,4.30
2017-11-26T04:47:27.063Z,4.33
2017-11-26T04:49:54.538Z,4.33
2017-11-26T04:52:21.994Z,4.35
2017-11-26T04:54:49.472Z,4.24
2017-11-26T04:57:16.932Z,4.22
2017-11-26T04:59:44.394Z,4.27
2017-11-26T05:02:11.877Z,4.17
2017-11-26T05:04:39.338Z,4.08
2017-11-26T05:07:06.835Z,4.12
2017-11-26T05:09:34.290Z,4.10
2017-11-26T05:12:01.743Z,4.00
2017-11-26T05:14:29.233Z,4.01
2017-11-26T05:16:56.685Z,3.99
2017-11-26T05:19:24.140Z,4.01
2017-11-26T05:21:51.622Z,4.04
2017-11-26T05:24:19.083Z,3.99
2017-11-26T05:26:46.552Z,3.91
2017-11-26T05:29:14.001Z,3.92
2017-11-26T05:31:41.485Z,3.94
2017-11-26T05:34:08.950Z,3.89
2017-11-26T05:36:36.447Z,3.84
2017-11-26T05:39:03.902Z,3.84
2017-11-26T05:41:31.360Z,3.85
2017-11-26T05:43:58.848Z,3.85
2017-11-26T05:46:26.293Z,3.86
2017-11-26T05:48:53.784Z,3.84
2017-11-26T05:51:21.259Z,3.83
2017-11-26T05:53:48.713Z,3.84
2017-11-26T05:56:16.191Z,3.78
2017-11-26T05:58:43.637Z,3.72
2017-11-26T06:01:11.115Z,3.77
2017-11-26T06:03:38.563Z,3.72
2017-11-26T06:06:06.012Z,3.73
2017-11-26T06:08:33.499Z,3.64
2017-11-26T06:11:00.963Z,3.66
2017-11-26T06:13:28.446Z,3.66
2017-11-26T06:15:55.927Z,3.69
2017-11-26T06:18:23.376Z,3.53
2017-11-26T06:20:50.850Z,3.58
2017-11-26T06:23:18.305Z,3.63
2017-11-26T06:25:45.803Z,3.58
2017-11-26T06:28:13.626Z,3.59
2017-11-26T06:30:41.079Z,3.62
2017-11-26T06:33:08.571Z,3.69
2017-11-26T06:35:36.051Z,3.65
2017-11-26T06:38:03.508Z,3.63
2017-11-26T06:40:30.999Z,3.67
2017-11-26T06:42:58.470Z,3.71
2017-11-26T06:45:25.944Z,3.64
2017-11-26T06:47:53.434Z,3.65
2017-11-26T06:50:20.906Z,3.63
2017-11-26T06:52:48.371Z,3.65
2017-11-26T06:55:15.838Z,3.64
2017-11-26T06:57:43.337Z,3.64
2017-11-26T07:00:10.796Z,3.62
2017-11-26T07:02:38.253Z,3.62
2017-11-26T07:05:05.726Z,3.54
2017-11-26T07:07:33.204Z,3.63
2017-11-26T07:10:00.677Z,3.64
2017-11-26T07:12:28.138Z,3.64
2017-11-26T07:14:55.621Z,3.67
2017-11-26T07:17:23.088Z,3.71
2017-11-26T07:19:50.564Z,3.64
2017-11-26T07:29:01.039Z,3.63
2017-11-26T07:31:28.587Z,3.59
2017-11-26T07:33:56.039Z,3.58
2017-11-26T07:36:23.522Z,3.58
2017-11-26T07:38:51.001Z,3.62
2017-11-26T07:41:19.168Z,3.58
2017-11-26T07:43:46.652Z,3.56
2017-11-26T07:46:14.108Z,3.58
2017-11-26T07:48:41.597Z,3.61
2017-11-26T07:51:09.056Z,3.64
2017-11-26T07:53:36.543Z,3.66
2017-11-26T07:56:04.026Z,3.64
2017-11-26T07:58:31.471Z,3.67
2017-11-26T08:00:58.923Z,3.72
2017-11-26T08:03:26.413Z,3.70
2017-11-26T08:05:53.871Z,3.70
2017-11-26T08:08:21.333Z,3.67
2017-11-26T08:10:48.860Z,3.61
2017-11-26T08:13:16.354Z,3.64
2017-11-26T08:15:43.836Z,3.62
2017-11-26T08:18:11.305Z,3.58
2017-11-26T08:20:38.794Z,3.60
2017-11-26T08:23:06.274Z,3.58
2017-11-26T08:25:33.760Z,3.59
2017-11-26T08:28:01.238Z,3.65
2017-11-26T08:30:28.694Z,3.57
2017-11-26T08:32:56.182Z,4.73
2017-11-26T08:35:23.639Z,4.32
2017-11-26T08:37:51.095Z,3.77
2017-11-26T08:40:18.578Z,3.78
2017-11-26T08:42:46.047Z,3.65
2017-11-26T08:45:13.537Z,3.66
2017-11-26T08:47:41.016Z,3.74
2017-11-26T08:50:08.510Z,3.73
2017-11-26T08:52:35.963Z,3.75
2017-11-26T08:55:03.447Z,3.79
2017-11-26T08:57:30.913Z,3.77
2017-11-26T08:59:58.391Z,3.83
2017-11-26T09:02:25.850Z,3.85
2017-11-26T09:04:53.339Z,3.81
2017-11-26T09:07:26.211Z,3.87
2017-11-26T09:09:53.678Z,3.83
2017-11-26T09:12:21.174Z,3.88
2017-11-26T09:14:48.656Z,3.95
2017-11-26T09:17:16.125Z,3.89
2017-11-26T09:19:43.605Z,3.88
2017-11-26T09:22:11.076Z,3.89
2017-11-26T09:24:38.572Z,3.89
2017-11-26T09:27:06.032Z,3.79
2017-11-26T09:29:33.551Z,3.81
2017-11-26T09:32:01.020Z,3.81
2017-11-26T09:34:28.484Z,3.69
2017-11-26T09:36:55.971Z,3.71
2017-11-26T09:39:23.446Z,3.66
2017-11-26T09:41:50.968Z,3.58
2017-11-26T09:44:18.525Z,3.55
2017-11-26T09:46:45.999Z,3.54
2017-11-26T09:49:13.496Z,3.50
2017-11-26T09:51:40.995Z,3.48
2017-11-26T09:54:08.454Z,3.52
2017-11-26T09:56:35.927Z,3.51
2017-11-26T09:59:03.428Z,3.46
2017-11-26T10:01:30.908Z,3.52
2017-11-26T10:03:58.456Z,3.45
2017-11-26T10:06:26.024Z,3.50
2017-11-26T10:08:53.542Z,3.51
2017-11-26T10:11:20.982Z,3.48
2017-11-26T10:13:48.430Z,3.46
2017-11-26T10:16:16.228Z,3.51
2017-11-26T10:18:43.712Z,3.42
2017-11-26T10:21:11.170Z,3.50
2017-11-26T10:23:38.644Z,3.59
2017-11-26T10:26:06.411Z,3.51
2017-11-26T10:28:34.054Z,3.61
2017-11-26T10:31:01.542Z,3.79
2017-11-26T10:33:29.024Z,3.83
2017-11-26T10:35:56.478Z,3.84
2017-11-26T10:38:24.125Z,3.88
2017-11-26T10:40:52.073Z,3.99
2017-11-26T10:43:19.558Z,4.02
2017-11-26T10:45:47.042Z,4.09
2017-11-26T10:48:14.567Z,4.18
2017-11-26T10:50:42.024Z,4.13
2017-11-26T10:53:09.501Z,4.29
2017-11-26T10:55:36.986Z,4.16
2017-11-26T10:58:04.436Z,4.25
2017-11-26T11:00:31.924Z,4.09
2017-11-26T11:02:59.400Z,4.11
2017-11-26T11:05:26.850Z,4.09
2017-11-26T11:07:54.321Z,3.97
2017-11-26T11:10:21.815Z,3.97
2017-11-26T11:12:49.282Z,4.03
2017-11-26T11:15:16.732Z,4.00
2017-11-26T11:17:44.206Z,4.04
2017-11-26T11:20:11.677Z,4.12
2017-11-26T11:22:39.135Z,4.01
2017-11-26T11:25:06.615Z,4.24
2017-11-26T11:27:34.070Z,4.11
2017-11-26T11:30:01.537Z,3.99
2017-11-26T11:32:28.995Z,4.01
2017-11-26T11:34:56.437Z,3.98
2017-11-26T11:37:23.908Z,3.98
2017-11-26T11:39:51.376Z,4.06
2017-11-26T11:42:18.853Z,4.12
2017-11-26T11:44:46.320Z,4.11
2017-11-26T11:47:13.800Z,4.08
2017-11-26T11:49:41.247Z,4.25
2017-11-26T11:52:08.733Z,4.29
2017-11-26T11:54:36.191Z,4.16
2017-11-26T11:57:03.653Z,4.43
2017-11-26T11:59:31.161Z,4.49
2017-11-26T12:01:58.643Z,4.52
2017-11-26T12:04:26.099Z,4.49
2017-11-26T12:06:53.589Z,4.33
2017-11-26T12:09:21.055Z,4.27
2017-11-26T12:11:48.534Z,4.30
2017-11-26T12:14:16.004Z,4.33
2017-11-26T12:16:43.493Z,4.21
2017-11-26T12:19:10.950Z,4.23
2017-11-26T12:21:38.418Z,4.18
2017-11-26T12:24:05.866Z,4.27
2017-11-26T12:26:33.370Z,4.19
2017-11-26T12:29:01.067Z,4.22
2017-11-26T12:31:28.510Z,4.21
2017-11-26T12:33:56.003Z,4.22
2017-11-26T12:36:23.464Z,4.19
2017-11-26T12:38:50.914Z,4.19
2017-11-26T12:41:18.410Z,4.21
2017-11-26T12:43:45.855Z,4.16
2017-11-26T12:46:13.331Z,4.20
2017-11-26T12:48:40.791Z,4.21
2017-11-26T12:51:08.272Z,4.24
2017-11-26T12:53:35.739Z,4.24
2017-11-26T12:56:03.205Z,4.37
2017-11-26T12:58:30.679Z,4.29
2017-11-26T13:00:58.146Z,4.23
2017-11-26T13:03:25.592Z,4.20
2017-11-26T13:05:53.063Z,3.51
2017-11-26T13:08:20.534Z,2.19
2017-11-26T13:13:01.507Z,1.74
